Главная страница
METAR-TAF:

METAR-TAF

Аэропорты :

Запорожье, Украина

широта: 47-52-02N, долгота: 035-18-59E, высота над уровнем моря: 114 м

Текущие метеонаблюдения

Эта сводка был подготовлена 36 минут назад, в 16:30 UTC
Ветер 8 Узел от северный
Температура 22°C
Влажность 31%
Давление 1015 hPa
Видимость 10 км и более
Нет облачности ниже 1500 м, и нет кучево-дождевой облачности

METAR: UKDE 191630Z 01004MPS CAVOK 22/04 Q1015 R02/CLRD70 NOSIG

Время: 20:06 (17:06 UTC)

Прогноз

Эта сводка был подготовлена 3 часа и 1 минут назад, в 14:05 UTC
Прогноз действительный с 19-го 15 UTC до 19-го 24 UTC
Ветер 10 Узел от северо-северо-восточный
Видимость 10 км и более
Нет облачности ниже 1500 м, и нет кучево-дождевой облачности
временами
С 19-го 15 UTC до 19-го 24 UTC
Ветер 14 Узел от северо-восточный с порывами до 23 Узел

TAF: UKDE 191405Z 1915/1924 02005MPS CAVOK TEMPO 1915/1924 05007G12MPS TX25/1915Z TN17/1924Z

Метеонаблюдения и прогнозы для более 4000 аэропортов (сводки METAR и TAF).

Имеющиеся станции представлены на карте желтыми и красными точками.

Чтобы увидеть название станции, наведите на нее мышь.

Затем щелкните, чтобы увидеть метеонаблюдения и метеопрогнозы.

Управление картой: чтобы увеличить масштаб, щелкните зеленые кнопки с черным крестиком; чтобы уменьшить масштаб, щелкните зеленую кнопку с тире; для просмотра соседних карт щелкайте зеленые стрелки.


METAR-TAF: